sensor_id;sensor_type;location;lat;lon;timestamp;temperature;humidity
65188;SHT30;51775;51.148;6.950;2023-02-15T00:02:07;21.14;33.44
65188;SHT30;51775;51.148;6.950;2023-02-15T00:04:32;21.12;33.91
65188;SHT30;51775;51.148;6.950;2023-02-15T00:06:58;21.14;33.82
65188;SHT30;51775;51.148;6.950;2023-02-15T00:09:23;21.11;34.03
65188;SHT30;51775;51.148;6.950;2023-02-15T00:11:48;21.12;33.86
65188;SHT30;51775;51.148;6.950;2023-02-15T00:14:17;21.10;33.94
65188;SHT30;51775;51.148;6.950;2023-02-15T00:16:43;21.10;34.19
65188;SHT30;51775;51.148;6.950;2023-02-15T00:19:10;21.08;33.84
65188;SHT30;51775;51.148;6.950;2023-02-15T00:21:36;21.10;33.94
65188;SHT30;51775;51.148;6.950;2023-02-15T00:24:03;21.08;33.78
65188;SHT30;51775;51.148;6.950;2023-02-15T00:26:29;21.07;33.89
65188;SHT30;51775;51.148;6.950;2023-02-15T00:28:55;21.04;33.77
65188;SHT30;51775;51.148;6.950;2023-02-15T00:31:21;21.07;33.92
65188;SHT30;51775;51.148;6.950;2023-02-15T00:33:47;21.04;33.83
65188;SHT30;51775;51.148;6.950;2023-02-15T00:36:12;21.04;33.83
65188;SHT30;51775;51.148;6.950;2023-02-15T00:38:38;21.04;33.80
65188;SHT30;51775;51.148;6.950;2023-02-15T00:41:05;21.04;33.83
65188;SHT30;51775;51.148;6.950;2023-02-15T00:43:32;21.03;33.74
65188;SHT30;51775;51.148;6.950;2023-02-15T00:45:58;21.00;33.74
65188;SHT30;51775;51.148;6.950;2023-02-15T00:48:24;21.01;33.66
65188;SHT30;51775;51.148;6.950;2023-02-15T00:50:51;21.01;33.77
65188;SHT30;51775;51.148;6.950;2023-02-15T00:53:17;20.97;33.67
65188;SHT30;51775;51.148;6.950;2023-02-15T00:55:42;20.98;33.43
65188;SHT30;51775;51.148;6.950;2023-02-15T00:58:09;20.95;33.58
65188;SHT30;51775;51.148;6.950;2023-02-15T01:00:34;20.97;33.71
65188;SHT30;51775;51.148;6.950;2023-02-15T01:03:00;20.97;33.75
65188;SHT30;51775;51.148;6.950;2023-02-15T01:05:26;20.95;33.72
65188;SHT30;51775;51.148;6.950;2023-02-15T01:07:51;20.95;33.83
65188;SHT30;51775;51.148;6.950;2023-02-15T01:10:17;20.94;33.62
65188;SHT30;51775;51.148;6.950;2023-02-15T01:12:42;20.93;33.46
65188;SHT30;51775;51.148;6.950;2023-02-15T01:15:08;20.93;33.50
65188;SHT30;51775;51.148;6.950;2023-02-15T01:17:34;20.91;33.31
65188;SHT30;51775;51.148;6.950;2023-02-15T01:19:59;20.88;33.55
65188;SHT30;51775;51.148;6.950;2023-02-15T01:22:25;20.90;33.56
65188;SHT30;51775;51.148;6.950;2023-02-15T01:24:50;20.88;33.68
65188;SHT30;51775;51.148;6.950;2023-02-15T01:27:16;20.87;33.53
65188;SHT30;51775;51.148;6.950;2023-02-15T01:29:41;20.86;33.63
65188;SHT30;51775;51.148;6.950;2023-02-15T01:32:06;20.84;33.45
65188;SHT30;51775;51.148;6.950;2023-02-15T01:34:32;20.83;33.48
65188;SHT30;51775;51.148;6.950;2023-02-15T01:36:57;20.84;33.42
65188;SHT30;51775;51.148;6.950;2023-02-15T01:39:22;20.83;33.51
65188;SHT30;51775;51.148;6.950;2023-02-15T01:41:48;20.83;33.50
65188;SHT30;51775;51.148;6.950;2023-02-15T01:44:47;20.80;33.45
65188;SHT30;51775;51.148;6.950;2023-02-15T01:47:16;20.80;33.48
65188;SHT30;51775;51.148;6.950;2023-02-15T01:49:43;20.79;33.44
65188;SHT30;51775;51.148;6.950;2023-02-15T01:52:11;20.80;33.75
65188;SHT30;51775;51.148;6.950;2023-02-15T01:54:38;20.77;33.43
65188;SHT30;51775;51.148;6.950;2023-02-15T01:57:13;20.74;33.54
65188;SHT30;51775;51.148;6.950;2023-02-15T01:59:42;20.76;33.44
65188;SHT30;51775;51.148;6.950;2023-02-15T02:02:09;20.76;33.59
65188;SHT30;51775;51.148;6.950;2023-02-15T02:04:48;20.73;33.52
65188;SHT30;51775;51.148;6.950;2023-02-15T02:07:17;20.72;33.65
65188;SHT30;51775;51.148;6.950;2023-02-15T02:09:44;20.72;33.34
65188;SHT30;51775;51.148;6.950;2023-02-15T02:12:10;20.70;33.29
65188;SHT30;51775;51.148;6.950;2023-02-15T02:14:36;20.70;33.53
65188;SHT30;51775;51.148;6.950;2023-02-15T02:17:16;20.67;33.56
65188;SHT30;51775;51.148;6.950;2023-02-15T02:22:39;20.72;33.48
65188;SHT30;51775;51.148;6.950;2023-02-15T02:31:00;20.73;33.22
65188;SHT30;51775;51.148;6.950;2023-02-15T02:36:22;20.70;33.30
65188;SHT30;51775;51.148;6.950;2023-02-15T02:47:13;20.72;33.07
65188;SHT30;51775;51.148;6.950;2023-02-15T02:49:42;20.72;33.10
65188;SHT30;51775;51.148;6.950;2023-02-15T02:52:35;20.70;33.19
65188;SHT30;51775;51.148;6.950;2023-02-15T02:55:02;20.70;33.32
65188;SHT30;51775;51.148;6.950;2023-02-15T02:57:30;20.69;33.17
65188;SHT30;51775;51.148;6.950;2023-02-15T02:59:58;20.72;33.22
65188;SHT30;51775;51.148;6.950;2023-02-15T03:02:28;20.70;33.10
65188;SHT30;51775;51.148;6.950;2023-02-15T03:05:01;20.67;33.08
65188;SHT30;51775;51.148;6.950;2023-02-15T03:07:30;20.67;33.08
65188;SHT30;51775;51.148;6.950;2023-02-15T03:09:57;20.67;33.04
65188;SHT30;51775;51.148;6.950;2023-02-15T03:12:28;20.70;32.99
65188;SHT30;51775;51.148;6.950;2023-02-15T03:15:00;20.67;33.02
65188;SHT30;51775;51.148;6.950;2023-02-15T03:17:27;20.70;32.98
65188;SHT30;51775;51.148;6.950;2023-02-15T03:19:57;20.66;33.02
65188;SHT30;51775;51.148;6.950;2023-02-15T03:22:29;20.67;32.97
65188;SHT30;51775;51.148;6.950;2023-02-15T03:27:59;20.63;32.99
65188;SHT30;51775;51.148;6.950;2023-02-15T03:30:27;20.59;33.13
65188;SHT30;51775;51.148;6.950;2023-02-15T03:32:56;20.59;33.01
65188;SHT30;51775;51.148;6.950;2023-02-15T03:35:24;20.57;33.01
65188;SHT30;51775;51.148;6.950;2023-02-15T03:37:54;20.52;32.96
65188;SHT30;51775;51.148;6.950;2023-02-15T03:40:34;20.52;33.04
65188;SHT30;51775;51.148;6.950;2023-02-15T03:45:57;20.49;33.11
65188;SHT30;51775;51.148;6.950;2023-02-15T03:48:36;20.49;33.09
65188;SHT30;51775;51.148;6.950;2023-02-15T03:51:06;20.50;33.02
65188;SHT30;51775;51.148;6.950;2023-02-15T03:53:33;20.52;33.14
65188;SHT30;51775;51.148;6.950;2023-02-15T03:55:58;20.50;33.10
65188;SHT30;51775;51.148;6.950;2023-02-15T03:58:24;20.52;33.08
65188;SHT30;51775;51.148;6.950;2023-02-15T04:01:18;20.49;33.11
65188;SHT30;51775;51.148;6.950;2023-02-15T04:03:43;20.52;33.23
65188;SHT30;51775;51.148;6.950;2023-02-15T04:06:10;20.55;32.96
65188;SHT30;51775;51.148;6.950;2023-02-15T04:08:35;20.50;32.97
65188;SHT30;51775;51.148;6.950;2023-02-15T04:11:00;20.52;32.87
65188;SHT30;51775;51.148;6.950;2023-02-15T04:13:31;20.50;32.96
65188;SHT30;51775;51.148;6.950;2023-02-15T04:15:56;20.50;33.00
65188;SHT30;51775;51.148;6.950;2023-02-15T04:18:22;20.56;32.91
65188;SHT30;51775;51.148;6.950;2023-02-15T04:20:47;20.50;32.83
65188;SHT30;51775;51.148;6.950;2023-02-15T04:23:12;20.49;32.84
65188;SHT30;51775;51.148;6.950;2023-02-15T04:25:38;20.48;32.89
65188;SHT30;51775;51.148;6.950;2023-02-15T04:28:03;20.49;32.80
65188;SHT30;51775;51.148;6.950;2023-02-15T04:30:28;20.46;32.85
65188;SHT30;51775;51.148;6.950;2023-02-15T04:32:54;20.46;32.95
65188;SHT30;51775;51.148;6.950;2023-02-15T04:35:20;20.50;33.07
65188;SHT30;51775;51.148;6.950;2023-02-15T04:37:45;20.48;33.00
65188;SHT30;51775;51.148;6.950;2023-02-15T04:40:15;20.50;32.88
65188;SHT30;51775;51.148;6.950;2023-02-15T04:42:40;20.49;32.97
65188;SHT30;51775;51.148;6.950;2023-02-15T04:45:06;20.49;32.77
65188;SHT30;51775;51.148;6.950;2023-02-15T04:47:31;20.46;32.91
65188;SHT30;51775;51.148;6.950;2023-02-15T04:49:57;20.48;32.83
65188;SHT30;51775;51.148;6.950;2023-02-15T04:52:22;20.48;32.82
65188;SHT30;51775;51.148;6.950;2023-02-15T04:54:47;20.40;32.90
65188;SHT30;51775;51.148;6.950;2023-02-15T04:57:13;20.39;32.89
65188;SHT30;51775;51.148;6.950;2023-02-15T04:59:38;20.39;32.78
65188;SHT30;51775;51.148;6.950;2023-02-15T05:02:04;20.36;32.79
65188;SHT30;51775;51.148;6.950;2023-02-15T05:04:29;20.32;32.93
65188;SHT30;51775;51.148;6.950;2023-02-15T05:06:54;20.33;32.94
65188;SHT30;51775;51.148;6.950;2023-02-15T05:09:19;20.30;32.83
65188;SHT30;51775;51.148;6.950;2023-02-15T05:11:45;20.29;32.88
65188;SHT30;51775;51.148;6.950;2023-02-15T05:14:10;20.28;32.86
65188;SHT30;51775;51.148;6.950;2023-02-15T05:16:36;20.25;32.71
65188;SHT30;51775;51.148;6.950;2023-02-15T05:19:01;20.25;32.78
65188;SHT30;51775;51.148;6.950;2023-02-15T05:21:26;20.26;32.65
65188;SHT30;51775;51.148;6.950;2023-02-15T05:23:52;20.25;32.77
65188;SHT30;51775;51.148;6.950;2023-02-15T05:26:20;20.26;32.74
65188;SHT30;51775;51.148;6.950;2023-02-15T05:28:46;20.26;32.78
65188;SHT30;51775;51.148;6.950;2023-02-15T05:31:16;20.26;32.65
65188;SHT30;51775;51.148;6.950;2023-02-15T05:33:42;20.28;32.80
65188;SHT30;51775;51.148;6.950;2023-02-15T05:36:08;20.26;32.68
65188;SHT30;51775;51.148;6.950;2023-02-15T05:38:34;20.29;32.54
65188;SHT30;51775;51.148;6.950;2023-02-15T05:41:00;20.28;32.69
65188;SHT30;51775;51.148;6.950;2023-02-15T05:43:25;20.28;32.45
65188;SHT30;51775;51.148;6.950;2023-02-15T05:45:53;20.30;32.40
65188;SHT30;51775;51.148;6.950;2023-02-15T05:48:21;20.30;32.41
65188;SHT30;51775;51.148;6.950;2023-02-15T05:51:06;20.30;32.36
65188;SHT30;51775;51.148;6.950;2023-02-15T05:53:34;20.30;32.45
65188;SHT30;51775;51.148;6.950;2023-02-15T05:56:00;20.35;32.50
65188;SHT30;51775;51.148;6.950;2023-02-15T05:58:26;20.33;32.51
65188;SHT30;51775;51.148;6.950;2023-02-15T06:00:52;20.35;32.51
65188;SHT30;51775;51.148;6.950;2023-02-15T06:03:17;20.33;32.32
65188;SHT30;51775;51.148;6.950;2023-02-15T06:05:42;20.33;32.50
65188;SHT30;51775;51.148;6.950;2023-02-15T06:08:07;20.33;32.53
65188;SHT30;51775;51.148;6.950;2023-02-15T06:10:33;20.35;32.52
65188;SHT30;51775;51.148;6.950;2023-02-15T06:12:58;20.36;32.46
65188;SHT30;51775;51.148;6.950;2023-02-15T06:15:23;20.35;32.43
65188;SHT30;51775;51.148;6.950;2023-02-15T06:17:48;20.36;32.50
65188;SHT30;51775;51.148;6.950;2023-02-15T06:20:14;20.36;32.17
65188;SHT30;51775;51.148;6.950;2023-02-15T06:22:39;20.38;31.93
65188;SHT30;51775;51.148;6.950;2023-02-15T06:25:05;20.40;32.28
65188;SHT30;51775;51.148;6.950;2023-02-15T06:27:30;20.39;31.83
65188;SHT30;51775;51.148;6.950;2023-02-15T06:29:55;20.39;31.88
65188;SHT30;51775;51.148;6.950;2023-02-15T06:32:21;20.39;32.15
65188;SHT30;51775;51.148;6.950;2023-02-15T06:34:46;20.39;32.32
65188;SHT30;51775;51.148;6.950;2023-02-15T06:37:11;20.38;32.37
65188;SHT30;51775;51.148;6.950;2023-02-15T06:39:36;20.40;31.50
65188;SHT30;51775;51.148;6.950;2023-02-15T06:42:02;20.38;32.37
65188;SHT30;51775;51.148;6.950;2023-02-15T06:44:29;20.40;31.15
65188;SHT30;51775;51.148;6.950;2023-02-15T06:46:54;20.40;30.75
65188;SHT30;51775;51.148;6.950;2023-02-15T06:49:20;20.43;30.87
65188;SHT30;51775;51.148;6.950;2023-02-15T06:51:45;20.43;30.74
65188;SHT30;51775;51.148;6.950;2023-02-15T06:54:10;20.45;30.91
65188;SHT30;51775;51.148;6.950;2023-02-15T06:56:35;20.46;30.50
65188;SHT30;51775;51.148;6.950;2023-02-15T06:59:01;20.48;30.56
65188;SHT30;51775;51.148;6.950;2023-02-15T07:01:27;20.49;31.57
65188;SHT30;51775;51.148;6.950;2023-02-15T07:03:52;20.45;31.05
65188;SHT30;51775;51.148;6.950;2023-02-15T07:06:17;20.49;30.80
65188;SHT30;51775;51.148;6.950;2023-02-15T07:08:43;20.46;30.79
65188;SHT30;51775;51.148;6.950;2023-02-15T07:11:08;20.50;30.74
65188;SHT30;51775;51.148;6.950;2023-02-15T07:13:33;20.43;31.38
65188;SHT30;51775;51.148;6.950;2023-02-15T07:15:58;20.46;31.90
65188;SHT30;51775;51.148;6.950;2023-02-15T07:18:24;20.49;31.29
65188;SHT30;51775;51.148;6.950;2023-02-15T07:20:49;20.50;31.37
65188;SHT30;51775;51.148;6.950;2023-02-15T07:23:14;20.52;31.37
65188;SHT30;51775;51.148;6.950;2023-02-15T07:25:39;20.56;31.53
65188;SHT30;51775;51.148;6.950;2023-02-15T07:28:05;20.55;31.70
65188;SHT30;51775;51.148;6.950;2023-02-15T07:30:30;20.55;31.54
65188;SHT30;51775;51.148;6.950;2023-02-15T07:32:57;20.57;31.68
65188;SHT30;51775;51.148;6.950;2023-02-15T07:35:22;20.56;31.85
65188;SHT30;51775;51.148;6.950;2023-02-15T07:37:47;20.60;32.02
65188;SHT30;51775;51.148;6.950;2023-02-15T07:40:13;20.56;31.88
65188;SHT30;51775;51.148;6.950;2023-02-15T07:42:42;20.60;32.66
65188;SHT30;51775;51.148;6.950;2023-02-15T07:45:08;20.57;32.58
65188;SHT30;51775;51.148;6.950;2023-02-15T07:47:33;20.60;32.69
65188;SHT30;51775;51.148;6.950;2023-02-15T07:49:58;20.60;32.60
65188;SHT30;51775;51.148;6.950;2023-02-15T07:52:25;20.59;32.52
65188;SHT30;51775;51.148;6.950;2023-02-15T07:54:50;20.59;32.63
65188;SHT30;51775;51.148;6.950;2023-02-15T07:57:15;20.60;32.78
65188;SHT30;51775;51.148;6.950;2023-02-15T07:59:41;20.60;32.81
65188;SHT30;51775;51.148;6.950;2023-02-15T08:02:14;20.62;32.87
65188;SHT30;51775;51.148;6.950;2023-02-15T08:04:40;20.60;32.91
65188;SHT30;51775;51.148;6.950;2023-02-15T08:07:05;20.60;32.68
65188;SHT30;51775;51.148;6.950;2023-02-15T08:09:31;20.60;32.94
65188;SHT30;51775;51.148;6.950;2023-02-15T08:11:57;20.63;33.67
65188;SHT30;51775;51.148;6.950;2023-02-15T08:14:22;20.73;33.34
65188;SHT30;51775;51.148;6.950;2023-02-15T08:19:28;20.70;32.82
65188;SHT30;51775;51.148;6.950;2023-02-15T08:21:59;20.72;33.70
65188;SHT30;51775;51.148;6.950;2023-02-15T08:24:29;20.74;33.62
65188;SHT30;51775;51.148;6.950;2023-02-15T08:26:55;20.72;33.78
65188;SHT30;51775;51.148;6.950;2023-02-15T08:29:23;20.72;32.56
65188;SHT30;51775;51.148;6.950;2023-02-15T08:31:49;20.70;33.40
65188;SHT30;51775;51.148;6.950;2023-02-15T08:34:17;20.69;33.73
65188;SHT30;51775;51.148;6.950;2023-02-15T08:36:44;20.74;33.61
65188;SHT30;51775;51.148;6.950;2023-02-15T08:39:09;20.65;33.92
65188;SHT30;51775;51.148;6.950;2023-02-15T08:41:36;20.65;33.61
65188;SHT30;51775;51.148;6.950;2023-02-15T08:44:03;20.74;33.65
65188;SHT30;51775;51.148;6.950;2023-02-15T08:46:32;20.63;32.98
65188;SHT30;51775;51.148;6.950;2023-02-15T08:48:58;20.70;33.59
65188;SHT30;51775;51.148;6.950;2023-02-15T08:51:29;20.74;33.63
65188;SHT30;51775;51.148;6.950;2023-02-15T08:53:57;20.77;33.37
65188;SHT30;51775;51.148;6.950;2023-02-15T08:56:26;20.62;32.59
65188;SHT30;51775;51.148;6.950;2023-02-15T08:58:52;20.55;33.34
65188;SHT30;51775;51.148;6.950;2023-02-15T09:01:23;20.60;33.19
65188;SHT30;51775;51.148;6.950;2023-02-15T09:03:51;20.55;33.45
65188;SHT30;51775;51.148;6.950;2023-02-15T09:06:17;20.42;33.13
65188;SHT30;51775;51.148;6.950;2023-02-15T09:08:42;20.43;33.24
65188;SHT30;51775;51.148;6.950;2023-02-15T09:11:28;20.45;33.19
65188;SHT30;51775;51.148;6.950;2023-02-15T09:13:59;20.45;33.04
65188;SHT30;51775;51.148;6.950;2023-02-15T09:16:27;20.43;33.12
65188;SHT30;51775;51.148;6.950;2023-02-15T09:18:53;20.42;33.44
65188;SHT30;51775;51.148;6.950;2023-02-15T09:21:21;20.38;33.28
65188;SHT30;51775;51.148;6.950;2023-02-15T09:23:48;20.35;33.54
65188;SHT30;51775;51.148;6.950;2023-02-15T09:26:16;20.35;33.61
65188;SHT30;51775;51.148;6.950;2023-02-15T09:28:42;20.30;33.41
65188;SHT30;51775;51.148;6.950;2023-02-15T09:31:12;20.28;33.71
65188;SHT30;51775;51.148;6.950;2023-02-15T09:33:38;20.26;33.73
65188;SHT30;51775;51.148;6.950;2023-02-15T09:36:05;20.25;33.88
65188;SHT30;51775;51.148;6.950;2023-02-15T09:38:30;20.36;33.56
65188;SHT30;51775;51.148;6.950;2023-02-15T09:44:01;20.59;33.30
65188;SHT30;51775;51.148;6.950;2023-02-15T10:00:27;21.08;33.15
65188;SHT30;51775;51.148;6.950;2023-02-15T10:13:49;21.35;33.29
65188;SHT30;51775;51.148;6.950;2023-02-15T10:19:38;21.51;33.12
65188;SHT30;51775;51.148;6.950;2023-02-15T10:27:32;21.75;32.70
65188;SHT30;51775;51.148;6.950;2023-02-15T10:30:11;21.82;32.75
65188;SHT30;51775;51.148;6.950;2023-02-15T10:33:01;21.79;32.87
65188;SHT30;51775;51.148;6.950;2023-02-15T10:43:49;22.31;34.62
65188;SHT30;51775;51.148;6.950;2023-02-15T10:55:08;22.20;36.39
65188;SHT30;51775;51.148;6.950;2023-02-15T10:57:56;22.17;36.32
65188;SHT30;51775;51.148;6.950;2023-02-15T11:00:30;22.14;36.81
65188;SHT30;51775;51.148;6.950;2023-02-15T11:06:16;22.18;36.68
65188;SHT30;51775;51.148;6.950;2023-02-15T11:08:53;22.20;37.31
65188;SHT30;51775;51.148;6.950;2023-02-15T11:11:29;22.18;37.10
65188;SHT30;51775;51.148;6.950;2023-02-15T11:14:23;22.22;37.47
65188;SHT30;51775;51.148;6.950;2023-02-15T11:16:55;22.22;37.67
65188;SHT30;51775;51.148;6.950;2023-02-15T11:19:30;22.25;37.53
65188;SHT30;51775;51.148;6.950;2023-02-15T11:22:01;22.25;37.74
65188;SHT30;51775;51.148;6.950;2023-02-15T11:24:29;22.28;38.04
65188;SHT30;51775;51.148;6.950;2023-02-15T11:27:16;22.28;37.83
65188;SHT30;51775;51.148;6.950;2023-02-15T11:30:02;22.37;38.16
65188;SHT30;51775;51.148;6.950;2023-02-15T11:32:38;22.38;37.87
65188;SHT30;51775;51.148;6.950;2023-02-15T11:35:28;22.41;37.53
65188;SHT30;51775;51.148;6.950;2023-02-15T11:40:34;22.45;37.56
65188;SHT30;51775;51.148;6.950;2023-02-15T11:43:16;22.44;38.03
65188;SHT30;51775;51.148;6.950;2023-02-15T11:45:43;22.47;37.86
65188;SHT30;51775;51.148;6.950;2023-02-15T11:48:12;22.47;38.22
65188;SHT30;51775;51.148;6.950;2023-02-15T11:50:38;22.48;38.17
65188;SHT30;51775;51.148;6.950;2023-02-15T11:53:21;22.45;37.93
65188;SHT30;51775;51.148;6.950;2023-02-15T11:55:48;22.48;38.39
65188;SHT30;51775;51.148;6.950;2023-02-15T11:58:29;22.13;35.50
65188;SHT30;51775;51.148;6.950;2023-02-15T12:01:08;22.14;36.30
65188;SHT30;51775;51.148;6.950;2023-02-15T12:06:35;22.22;35.80
65188;SHT30;51775;51.148;6.950;2023-02-15T12:09:09;22.25;36.46
65188;SHT30;51775;51.148;6.950;2023-02-15T12:11:40;22.38;36.10
65188;SHT30;51775;51.148;6.950;2023-02-15T12:14:08;22.48;36.79
65188;SHT30;51775;51.148;6.950;2023-02-15T12:16:41;22.54;36.40
65188;SHT30;51775;51.148;6.950;2023-02-15T12:19:19;22.61;36.06
65188;SHT30;51775;51.148;6.950;2023-02-15T12:21:50;22.61;35.21
65188;SHT30;51775;51.148;6.950;2023-02-15T12:24:36;22.65;34.70
65188;SHT30;51775;51.148;6.950;2023-02-15T12:27:12;22.73;34.97
65188;SHT30;51775;51.148;6.950;2023-02-15T12:29:41;22.75;35.43
65188;SHT30;51775;51.148;6.950;2023-02-15T12:32:33;22.77;34.70
65188;SHT30;51775;51.148;6.950;2023-02-15T12:35:07;22.90;35.10
65188;SHT30;51775;51.148;6.950;2023-02-15T12:37:34;22.93;34.51
65188;SHT30;51775;51.148;6.950;2023-02-15T12:40:23;23.00;34.45
65188;SHT30;51775;51.148;6.950;2023-02-15T12:42:47;22.99;34.33
65188;SHT30;51775;51.148;6.950;2023-02-15T12:45:27;22.98;34.27
65188;SHT30;51775;51.148;6.950;2023-02-15T12:48:20;23.06;34.44
65188;SHT30;51775;51.148;6.950;2023-02-15T12:50:47;23.10;34.58
65188;SHT30;51775;51.148;6.950;2023-02-15T12:53:17;23.10;33.95
65188;SHT30;51775;51.148;6.950;2023-02-15T12:58:25;23.24;33.89
65188;SHT30;51775;51.148;6.950;2023-02-15T13:01:04;23.23;34.24
65188;SHT30;51775;51.148;6.950;2023-02-15T13:03:34;23.19;33.88
65188;SHT30;51775;51.148;6.950;2023-02-15T13:06:02;23.16;33.94
65188;SHT30;51775;51.148;6.950;2023-02-15T13:08:38;23.13;34.43
65188;SHT30;51775;51.148;6.950;2023-02-15T13:11:08;23.16;34.27
65188;SHT30;51775;51.148;6.950;2023-02-15T13:13:51;23.16;34.37
65188;SHT30;51775;51.148;6.950;2023-02-15T13:16:21;23.17;34.49
65188;SHT30;51775;51.148;6.950;2023-02-15T13:18:50;23.06;33.90
65188;SHT30;51775;51.148;6.950;2023-02-15T13:21:23;23.09;34.79
65188;SHT30;51775;51.148;6.950;2023-02-15T13:24:13;23.04;33.95
65188;SHT30;51775;51.148;6.950;2023-02-15T13:26:41;23.10;34.04
65188;SHT30;51775;51.148;6.950;2023-02-15T13:29:15;23.17;34.15
65188;SHT30;51775;51.148;6.950;2023-02-15T13:31:42;23.21;34.47
65188;SHT30;51775;51.148;6.950;2023-02-15T13:34:12;23.16;34.06
65188;SHT30;51775;51.148;6.950;2023-02-15T13:41:52;23.27;33.91
65188;SHT30;51775;51.148;6.950;2023-02-15T13:44:51;23.23;34.17
65188;SHT30;51775;51.148;6.950;2023-02-15T13:47:26;23.30;34.29
65188;SHT30;51775;51.148;6.950;2023-02-15T13:50:07;23.37;34.38
65188;SHT30;51775;51.148;6.950;2023-02-15T13:52:45;23.44;34.39
65188;SHT30;51775;51.148;6.950;2023-02-15T13:55:34;23.44;34.27
65188;SHT30;51775;51.148;6.950;2023-02-15T13:58:05;23.48;34.02
65188;SHT30;51775;51.148;6.950;2023-02-15T14:06:27;23.51;33.73
65188;SHT30;51775;51.148;6.950;2023-02-15T14:14:25;23.50;34.08
65188;SHT30;51775;51.148;6.950;2023-02-15T14:17:11;23.57;33.77
65188;SHT30;51775;51.148;6.950;2023-02-15T14:20:05;23.67;33.94
65188;SHT30;51775;51.148;6.950;2023-02-15T14:22:49;23.55;33.89
65188;SHT30;51775;51.148;6.950;2023-02-15T14:25:33;23.57;33.97
65188;SHT30;51775;51.148;6.950;2023-02-15T14:28:14;23.46;33.71
65188;SHT30;51775;51.148;6.950;2023-02-15T14:30:44;23.47;34.48
65188;SHT30;51775;51.148;6.950;2023-02-15T14:35:54;23.54;34.15
65188;SHT30;51775;51.148;6.950;2023-02-15T14:46:38;23.51;34.51
65188;SHT30;51775;51.148;6.950;2023-02-15T14:49:16;23.28;34.01
65188;SHT30;51775;51.148;6.950;2023-02-15T14:54:08;23.04;34.52
65188;SHT30;51775;51.148;6.950;2023-02-15T14:56:35;23.06;34.59
65188;SHT30;51775;51.148;6.950;2023-02-15T14:59:21;22.99;34.86
65188;SHT30;51775;51.148;6.950;2023-02-15T15:02:17;22.98;34.68
65188;SHT30;51775;51.148;6.950;2023-02-15T15:07:28;22.89;34.53
65188;SHT30;51775;51.148;6.950;2023-02-15T15:12:57;22.76;34.81
65188;SHT30;51775;51.148;6.950;2023-02-15T15:25:52;22.61;34.66
65188;SHT30;51775;51.148;6.950;2023-02-15T15:31:30;22.44;34.93
65188;SHT30;51775;51.148;6.950;2023-02-15T15:36:50;22.30;35.07
65188;SHT30;51775;51.148;6.950;2023-02-15T15:50:32;22.21;34.83
65188;SHT30;51775;51.148;6.950;2023-02-15T15:53:00;22.18;34.92
65188;SHT30;51775;51.148;6.950;2023-02-15T15:55:29;22.17;34.68
65188;SHT30;51775;51.148;6.950;2023-02-15T15:57:59;22.14;34.81
65188;SHT30;51775;51.148;6.950;2023-02-15T16:00:51;22.14;34.85
65188;SHT30;51775;51.148;6.950;2023-02-15T16:03:26;22.16;34.62
65188;SHT30;51775;51.148;6.950;2023-02-15T16:05:52;22.10;35.14
65188;SHT30;51775;51.148;6.950;2023-02-15T16:08:35;22.10;34.45
65188;SHT30;51775;51.148;6.950;2023-02-15T16:11:23;22.10;34.59
65188;SHT30;51775;51.148;6.950;2023-02-15T16:13:49;22.00;34.40
65188;SHT30;51775;51.148;6.950;2023-02-15T16:16:25;22.01;34.44
65188;SHT30;51775;51.148;6.950;2023-02-15T16:18:51;21.97;34.34
65188;SHT30;51775;51.148;6.950;2023-02-15T16:21:23;22.00;34.42
65188;SHT30;51775;51.148;6.950;2023-02-15T16:26:48;21.96;34.60
65188;SHT30;51775;51.148;6.950;2023-02-15T16:29:18;21.90;34.32
65188;SHT30;51775;51.148;6.950;2023-02-15T16:32:22;21.96;34.70
65188;SHT30;51775;51.148;6.950;2023-02-15T16:35:02;21.85;34.41
65188;SHT30;51775;51.148;6.950;2023-02-15T16:37:32;21.92;34.71
65188;SHT30;51775;51.148;6.950;2023-02-15T16:39:57;21.89;34.40
65188;SHT30;51775;51.148;6.950;2023-02-15T16:42:23;21.89;34.92
65188;SHT30;51775;51.148;6.950;2023-02-15T16:44:51;21.83;34.50
65188;SHT30;51775;51.148;6.950;2023-02-15T16:47:27;21.83;34.76
65188;SHT30;51775;51.148;6.950;2023-02-15T16:49:56;21.76;35.26
65188;SHT30;51775;51.148;6.950;2023-02-15T16:52:25;21.76;34.66
65188;SHT30;51775;51.148;6.950;2023-02-15T16:55:00;21.73;34.46
65188;SHT30;51775;51.148;6.950;2023-02-15T16:57:37;21.76;34.66
65188;SHT30;51775;51.148;6.950;2023-02-15T17:00:08;21.70;34.54
65188;SHT30;51775;51.148;6.950;2023-02-15T17:03:37;21.73;34.73
65188;SHT30;51775;51.148;6.950;2023-02-15T17:05:58;21.66;34.47
65188;SHT30;51775;51.148;6.950;2023-02-15T17:13:25;21.63;34.56
65188;SHT30;51775;51.148;6.950;2023-02-15T17:20:55;21.59;34.18
65188;SHT30;51775;51.148;6.950;2023-02-15T17:26:00;21.55;34.23
65188;SHT30;51775;51.148;6.950;2023-02-15T17:28:30;21.56;34.39
65188;SHT30;51775;51.148;6.950;2023-02-15T17:30:57;21.56;34.17
65188;SHT30;51775;51.148;6.950;2023-02-15T17:33:26;21.62;34.59
65188;SHT30;51775;51.148;6.950;2023-02-15T17:36:06;21.58;33.99
65188;SHT30;51775;51.148;6.950;2023-02-15T17:38:32;21.59;34.33
65188;SHT30;51775;51.148;6.950;2023-02-15T17:40:58;21.60;34.16
65188;SHT30;51775;51.148;6.950;2023-02-15T17:43:24;21.60;34.54
65188;SHT30;51775;51.148;6.950;2023-02-15T17:45:50;21.55;34.02
65188;SHT30;51775;51.148;6.950;2023-02-15T17:48:29;21.59;34.44
65188;SHT30;51775;51.148;6.950;2023-02-15T17:50:58;21.55;34.21
65188;SHT30;51775;51.148;6.950;2023-02-15T17:53:23;21.55;34.58
65188;SHT30;51775;51.148;6.950;2023-02-15T17:55:49;21.48;34.08
65188;SHT30;51775;51.148;6.950;2023-02-15T17:58:17;21.51;34.42
65188;SHT30;51775;51.148;6.950;2023-02-15T18:00:44;21.43;34.23
65188;SHT30;51775;51.148;6.950;2023-02-15T18:03:10;21.45;34.52
65188;SHT30;51775;51.148;6.950;2023-02-15T18:05:36;21.41;34.12
65188;SHT30;51775;51.148;6.950;2023-02-15T18:08:02;21.37;34.24
65188;SHT30;51775;51.148;6.950;2023-02-15T18:10:29;21.37;34.30
65188;SHT30;51775;51.148;6.950;2023-02-15T18:12:54;21.38;34.45
65188;SHT30;51775;51.148;6.950;2023-02-15T18:15:20;21.37;34.45
65188;SHT30;51775;51.148;6.950;2023-02-15T18:17:45;21.42;34.91
65188;SHT30;51775;51.148;6.950;2023-02-15T18:22:42;21.38;34.80
65188;SHT30;51775;51.148;6.950;2023-02-15T18:25:16;21.42;34.73
65188;SHT30;51775;51.148;6.950;2023-02-15T18:27:41;21.32;34.60
65188;SHT30;51775;51.148;6.950;2023-02-15T18:30:07;21.34;34.89
65188;SHT30;51775;51.148;6.950;2023-02-15T18:32:35;21.31;34.54
65188;SHT30;51775;51.148;6.950;2023-02-15T18:35:02;21.31;34.68
65188;SHT30;51775;51.148;6.950;2023-02-15T18:37:30;21.25;34.48
65188;SHT30;51775;51.148;6.950;2023-02-15T18:39:56;21.25;34.53
65188;SHT30;51775;51.148;6.950;2023-02-15T18:42:29;21.22;34.58